Time;durP1;ratioP1;P1;durP2;ratioP2;P2;SDS_P1;SDS_P2;PMS_P1;PMS_P2;Temp;Humidity;BMP_temperature;BMP_pressure;BME280_temperature;BME280_humidity;BME280_pressure;Samples;Min_cycle;Max_cycle;Signal;HPM_P1;HPM_P2
2021/04/03 00:00:31;;;;;;;10.68;7.80;;;13.60;99.90;;;;;;5069873;28;20202;-78
2021/04/03 00:03:00;;;;;;;11.65;6.43;;;13.70;99.90;;;;;;5069937;28;20202;-76
2021/04/03 00:05:28;;;;;;;11.23;6.97;;;13.60;99.90;;;;;;5069837;28;20206;-76
2021/04/03 00:07:55;;;;;;;13.93;7.10;;;13.50;99.90;;;;;;5069859;28;20681;-75
2021/04/03 00:10:25;;;;;;;11.25;7.72;;;13.40;99.90;;;;;;5069804;28;20213;-76
2021/04/03 00:12:52;;;;;;;11.23;7.72;;;13.20;99.90;;;;;;5069711;28;20225;-75
2021/04/03 00:15:19;;;;;;;18.05;7.43;;;13.00;99.90;;;;;;5070455;28;20206;-82
2021/04/03 00:17:45;;;;;;;10.07;7.35;;;13.00;99.90;;;;;;5069274;28;20202;-81
2021/04/03 00:20:15;;;;;;;11.55;7.78;;;13.10;99.90;;;;;;5072120;28;20233;-82
2021/04/03 00:22:44;;;;;;;10.50;7.63;;;13.30;99.90;;;;;;5073960;28;20581;-80
2021/04/03 00:25:12;;;;;;;10.60;8.15;;;13.10;99.90;;;;;;5074675;28;20205;-80
2021/04/03 00:27:38;;;;;;;16.85;7.57;;;13.00;99.90;;;;;;5074473;28;20209;-79
2021/04/03 00:30:15;;;;;;;11.05;7.85;;;12.90;99.90;;;;;;5073593;28;20216;-78
2021/04/03 00:32:43;;;;;;;12.93;7.82;;;12.90;99.90;;;;;;5074019;28;20674;-78
2021/04/03 00:35:11;;;;;;;9.70;6.72;;;13.10;99.90;;;;;;5074421;28;20206;-79
2021/04/03 00:37:37;;;;;;;25.08;6.75;;;13.00;99.90;;;;;;5074297;28;20562;-80
2021/04/03 00:40:09;;;;;;;13.88;7.95;;;13.00;99.90;;;;;;5073437;28;20234;-85
2021/04/03 00:42:35;;;;;;;14.93;7.18;;;13.00;99.90;;;;;;5074136;28;20716;-80
2021/04/03 00:45:03;;;;;;;13.25;6.95;;;13.00;99.90;;;;;;5072927;28;20658;-81
2021/04/03 00:47:29;;;;;;;9.50;7.78;;;12.90;99.90;;;;;;5073873;28;20218;-80
2021/04/03 00:49:56;;;;;;;13.57;8.13;;;12.90;99.90;;;;;;5073437;28;20229;-87
2021/04/03 00:52:22;;;;;;;10.55;7.30;;;12.90;99.90;;;;;;5074013;28;20210;-81
2021/04/03 00:54:49;;;;;;;15.07;7.95;;;12.90;99.90;;;;;;5073017;28;20217;-78
2021/04/03 00:57:17;;;;;;;11.35;7.65;;;12.90;99.90;;;;;;5073433;28;20202;-79
2021/04/03 00:59:43;;;;;;;8.30;6.75;;;12.60;99.90;;;;;;5072890;28;20744;-80
2021/04/03 01:02:10;;;;;;;16.52;6.75;;;12.50;99.90;;;;;;5073576;28;20202;-87
2021/04/03 01:04:38;;;;;;;12.38;8.13;;;12.60;99.90;;;;;;5074303;28;20228;-81
2021/04/03 01:07:05;;;;;;;11.73;8.10;;;12.80;99.90;;;;;;5072857;28;20202;-79
2021/04/03 01:09:36;;;;;;;13.90;7.47;;;12.80;99.90;;;;;;5073490;28;20206;-80
2021/04/03 01:12:17;;;;;;;12.05;8.68;;;12.60;99.90;;;;;;5072655;28;21226;-82
2021/04/03 01:14:52;;;;;;;10.85;7.13;;;12.90;99.90;;;;;;5072371;28;20289;-81
2021/04/03 01:17:26;;;;;;;17.75;7.57;;;12.90;99.90;;;;;;5073094;28;20266;-81
2021/04/03 01:20:29;;;;;;;16.00;7.57;;;13.00;99.90;;;;;;5072880;28;20237;-80
2021/04/03 01:23:26;;;;;;;12.20;7.50;;;13.00;99.90;;;;;;5072682;28;20202;-81
2021/04/03 01:26:07;;;;;;;18.70;8.48;;;13.00;99.90;;;;;;5072486;28;20206;-81
2021/04/03 01:28:53;;;;;;;14.60;8.75;;;13.00;99.90;;;;;;5072990;28;20213;-82
2021/04/03 01:31:21;;;;;;;25.27;10.20;;;13.00;99.90;;;;;;5071669;28;20194;-82
2021/04/03 01:33:50;;;;;;;27.85;9.13;;;13.10;99.90;;;;;;5073005;28;20263;-79
2021/04/03 01:36:20;;;;;;;21.25;8.98;;;13.10;99.90;;;;;;5072918;28;20202;-79
2021/04/03 01:38:53;;;;;;;25.05;9.02;;;13.10;99.90;;;;;;5072324;28;20276;-79
2021/04/03 01:41:23;;;;;;;18.50;9.13;;;13.20;99.90;;;;;;5072404;28;20252;-81
2021/04/03 01:43:52;;;;;;;20.65;8.70;;;13.00;99.90;;;;;;5071956;28;20293;-80
2021/04/03 01:46:22;;;;;;;20.85;10.65;;;12.90;99.90;;;;;;5072410;28;20255;-81
2021/04/03 01:48:51;;;;;;;30.50;10.32;;;12.90;99.90;;;;;;5072286;28;20210;-81
2021/04/03 01:51:18;;;;;;;22.38;10.48;;;12.90;99.90;;;;;;5072520;28;20234;-82
2021/04/03 01:53:45;;;;;;;22.33;11.07;;;12.80;99.90;;;;;;5072024;28;20252;-81
2021/04/03 01:56:13;;;;;;;17.73;10.23;;;12.80;99.90;;;;;;5072751;28;20718;-80
2021/04/03 01:58:42;;;;;;;18.35;9.90;;;12.80;99.90;;;;;;5072130;28;20230;-82
2021/04/03 02:01:10;;;;;;;22.85;11.82;;;12.90;99.90;;;;;;5072659;28;20205;-82
2021/04/03 02:03:38;;;;;;;20.53;10.93;;;12.90;99.90;;;;;;5072571;28;20233;-80
2021/04/03 02:06:06;;;;;;;26.05;11.63;;;12.90;99.90;;;;;;5071886;28;20221;-79
2021/04/03 02:08:33;;;;;;;24.03;12.40;;;12.90;99.90;;;;;;5072170;28;20210;-80
2021/04/03 02:11:02;;;;;;;16.33;10.33;;;12.90;99.90;;;;;;5072232;28;20218;-80
2021/04/03 02:13:31;;;;;;;20.93;10.53;;;12.90;99.90;;;;;;5072126;28;20279;-80
2021/04/03 02:16:00;;;;;;;23.00;11.43;;;13.00;99.90;;;;;;5071742;28;20210;-79
2021/04/03 02:18:29;;;;;;;24.48;10.52;;;12.90;99.90;;;;;;5071875;28;20692;-79
2021/04/03 02:20:58;;;;;;;25.27;10.93;;;12.90;99.90;;;;;;5071768;28;20210;-79
2021/04/03 02:23:27;;;;;;;28.07;11.67;;;12.90;99.90;;;;;;5071987;28;20206;-79
2021/04/03 02:25:55;;;;;;;22.27;12.10;;;12.90;99.90;;;;;;5071243;28;20199;-79
2021/04/03 02:28:23;;;;;;;23.55;12.77;;;13.00;99.90;;;;;;5071983;28;20214;-77
2021/04/03 02:30:50;;;;;;;20.52;11.57;;;13.10;99.90;;;;;;5071042;28;20677;-77
2021/04/03 02:33:16;;;;;;;25.30;11.32;;;12.90;99.90;;;;;;5071855;28;20198;-75
2021/04/03 02:35:43;;;;;;;24.10;11.95;;;13.00;99.90;;;;;;5071605;28;20677;-78
2021/04/03 02:38:11;;;;;;;28.43;12.77;;;13.00;99.90;;;;;;5072098;28;20210;-78
2021/04/03 02:40:38;;;;;;;28.43;14.10;;;12.90;99.90;;;;;;5071987;28;20214;-80
2021/04/03 02:43:08;;;;;;;24.45;12.95;;;12.90;99.90;;;;;;5070484;28;20206;-79
2021/04/03 02:45:39;;;;;;;30.42;12.82;;;12.90;99.90;;;;;;5072033;28;20210;-79
2021/04/03 02:48:10;;;;;;;28.07;12.23;;;12.90;99.90;;;;;;5071142;28;20214;-79
2021/04/03 02:50:41;;;;;;;27.00;13.83;;;12.90;99.90;;;;;;5072152;28;20225;-82
2021/04/03 02:53:11;;;;;;;29.80;13.68;;;12.90;99.90;;;;;;5071022;28;20294;-79
2021/04/03 02:55:41;;;;;;;29.57;13.83;;;12.90;99.90;;;;;;5071570;28;20202;-79
2021/04/03 02:58:11;;;;;;;27.80;13.05;;;12.80;99.90;;;;;;5070804;28;20286;-79
2021/04/03 03:00:39;;;;;;;25.23;14.67;;;12.70;99.90;;;;;;5071823;28;20226;-80
2021/04/03 03:03:06;;;;;;;24.37;13.27;;;12.80;99.90;;;;;;5070566;28;20210;-79
2021/04/03 03:05:33;;;;;;;28.23;14.20;;;12.70;99.90;;;;;;5071034;28;20225;-80
2021/04/03 03:08:03;;;;;;;27.07;14.77;;;12.70;99.90;;;;;;5070579;28;20202;-79
2021/04/03 03:10:31;;;;;;;31.27;16.27;;;12.70;99.90;;;;;;5070745;28;20218;-79
2021/04/03 03:12:59;;;;;;;32.20;14.60;;;12.70;99.90;;;;;;5070315;28;20203;-78
2021/04/03 03:15:30;;;;;;;21.67;13.90;;;12.70;99.90;;;;;;5070910;28;20207;-79
2021/04/03 03:17:57;;;;;;;22.63;15.53;;;12.80;99.90;;;;;;5070605;28;20206;-79
2021/04/03 03:20:25;;;;;;;27.13;16.33;;;12.80;99.90;;;;;;5070576;28;20774;-79
2021/04/03 03:22:52;;;;;;;25.83;14.70;;;12.80;99.90;;;;;;5056821;28;20214;-79
2021/04/03 03:25:18;;;;;;;29.13;13.90;;;12.90;99.90;;;;;;5070847;28;20228;-83
2021/04/03 03:27:47;;;;;;;30.03;15.47;;;12.90;99.90;;;;;;5070557;28;20207;-85
2021/04/03 03:30:16;;;;;;;24.37;15.83;;;12.80;99.90;;;;;;5071396;28;20673;-83
2021/04/03 03:32:43;;;;;;;24.67;14.90;;;12.90;99.90;;;;;;5070798;28;20202;-84
2021/04/03 03:35:11;;;;;;;24.77;13.97;;;12.90;99.90;;;;;;5071552;28;20206;-82
2021/04/03 03:37:39;;;;;;;24.20;15.73;;;13.00;99.90;;;;;;5070813;28;20255;-79
2021/04/03 03:40:06;;;;;;;34.30;15.85;;;13.00;99.90;;;;;;5069882;28;20234;-79
2021/04/03 03:42:34;;;;;;;24.17;13.83;;;13.00;99.90;;;;;;5070556;28;20206;-79
2021/04/03 03:45:03;;;;;;;28.45;14.30;;;13.00;99.90;;;;;;5070362;28;20623;-78
2021/04/03 03:47:31;;;;;;;27.93;15.00;;;13.00;99.90;;;;;;5070623;28;20214;-78
2021/04/03 03:49:57;;;;;;;20.63;13.77;;;13.00;99.90;;;;;;5069746;28;20696;-79
2021/04/03 03:52:24;;;;;;;22.95;13.10;;;13.00;99.90;;;;;;5070606;28;20214;-79
2021/04/03 03:54:50;;;;;;;22.13;14.57;;;13.00;99.90;;;;;;5068837;28;20210;-80
2021/04/03 03:57:17;;;;;;;30.00;14.95;;;12.90;99.90;;;;;;5070404;28;20746;-79
2021/04/03 03:59:44;;;;;;;30.25;15.82;;;12.90;99.90;;;;;;5069623;28;20233;-78
2021/04/03 04:02:11;;;;;;;25.55;14.73;;;12.90;99.90;;;;;;5070669;28;20213;-77
2021/04/03 04:04:37;;;;;;;26.45;13.90;;;13.00;99.90;;;;;;5070620;28;20202;-81
2021/04/03 04:07:05;;;;;;;30.73;14.48;;;12.90;99.90;;;;;;5069639;28;20217;-81
2021/04/03 04:09:31;;;;;;;24.90;14.27;;;12.90;99.90;;;;;;5070316;28;20307;-81
2021/04/03 04:12:03;;;;;;;29.25;14.50;;;12.90;99.90;;;;;;5069875;28;20202;-80
2021/04/03 04:14:32;;;;;;;26.52;15.60;;;12.90;99.90;;;;;;5070561;28;20623;-79
2021/04/03 04:16:58;;;;;;;25.33;14.77;;;12.90;99.90;;;;;;5070165;28;20218;-89
2021/04/03 04:19:26;;;;;;;27.65;14.93;;;12.90;99.90;;;;;;5070884;28;20245;-89
2021/04/03 04:21:52;;;;;;;24.00;13.48;;;13.00;99.90;;;;;;5070223;28;20779;-87
2021/04/03 04:24:19;;;;;;;21.42;14.40;;;12.90;99.90;;;;;;5070173;28;20239;-85
2021/04/03 04:26:46;;;;;;;28.83;13.70;;;13.00;99.90;;;;;;5070270;28;20213;-84
2021/04/03 04:29:13;;;;;;;25.53;15.33;;;13.00;99.90;;;;;;5070230;28;20205;-78
2021/04/03 04:31:39;;;;;;;26.25;14.48;;;13.00;99.90;;;;;;5070126;28;20214;-79
2021/04/03 04:34:06;;;;;;;22.07;13.23;;;12.90;99.90;;;;;;5069543;28;20210;-78
2021/04/03 04:36:33;;;;;;;18.13;14.27;;;13.00;99.90;;;;;;5070762;28;20696;-86
2021/04/03 04:39:00;;;;;;;21.80;14.47;;;12.90;99.90;;;;;;5070268;28;20226;-81
2021/04/03 04:41:26;;;;;;;24.38;14.02;;;13.00;99.90;;;;;;5070082;28;20248;-81
2021/04/03 04:43:53;;;;;;;20.15;12.95;;;12.90;99.90;;;;;;5069514;28;20259;-79
2021/04/03 04:46:20;;;;;;;22.60;13.18;;;12.90;99.90;;;;;;5069731;28;20670;-77
2021/04/03 04:48:46;;;;;;;29.33;14.37;;;12.90;99.90;;;;;;5069692;28;20206;-81
2021/04/03 04:51:12;;;;;;;24.67;13.55;;;12.90;99.90;;;;;;5069531;28;20218;-80
2021/04/03 04:53:40;;;;;;;21.88;12.57;;;12.90;99.90;;;;;;5070363;28;20214;-80
2021/04/03 04:56:07;;;;;;;26.48;14.50;;;12.90;99.90;;;;;;5069688;28;20739;-78
2021/04/03 04:58:33;;;;;;;18.63;13.07;;;12.90;99.90;;;;;;5069845;28;20202;-84
2021/04/03 05:01:00;;;;;;;25.23;13.30;;;12.80;99.90;;;;;;5069956;28;20206;-85
2021/04/03 05:03:28;;;;;;;19.45;12.90;;;12.90;99.90;;;;;;5069491;28;20267;-87
2021/04/03 05:05:54;;;;;;;17.07;11.97;;;12.80;99.90;;;;;;5071238;28;20214;-87
2021/04/03 05:08:21;;;;;;;21.85;13.23;;;12.70;99.90;;;;;;5073739;28;20213;-79
2021/04/03 05:10:48;;;;;;;20.73;12.25;;;12.60;99.90;;;;;;5073117;28;20255;-79
2021/04/03 05:13:14;;;;;;;23.77;11.90;;;12.50;99.90;;;;;;5073358;28;20271;-83
2021/04/03 05:15:41;;;;;;;21.27;11.63;;;12.50;99.90;;;;;;5066506;28;20744;-85
2021/04/03 05:18:07;;;;;;;26.98;13.00;;;12.40;99.90;;;;;;5066354;28;20271;-84
2021/04/03 05:20:34;;;;;;;23.73;13.48;;;12.40;99.90;;;;;;5072722;28;20233;-83
2021/04/03 05:23:00;;;;;;;21.05;12.07;;;12.40;99.90;;;;;;5073065;28;20202;-82
2021/04/03 05:25:27;;;;;;;21.83;12.73;;;12.60;99.90;;;;;;5073111;28;20215;-80
2021/04/03 05:27:55;;;;;;;22.80;12.07;;;12.60;99.90;;;;;;5072410;28;20207;-76
2021/04/03 05:30:22;;;;;;;22.67;13.13;;;12.70;99.90;;;;;;5073070;28;20265;-75
2021/04/03 05:32:49;;;;;;;23.07;11.97;;;12.60;99.90;;;;;;5072470;28;20209;-75
2021/04/03 05:35:15;;;;;;;20.97;12.67;;;12.70;99.90;;;;;;5072597;28;20206;-76
2021/04/03 05:37:42;;;;;;;18.67;12.80;;;12.50;99.90;;;;;;5072559;28;20214;-75
2021/04/03 05:40:11;;;;;;;21.25;11.82;;;12.40;99.90;;;;;;5073089;28;20716;-79
2021/04/03 05:42:38;;;;;;;19.90;12.13;;;12.40;99.90;;;;;;5071560;28;20206;-79
2021/04/03 05:45:06;;;;;;;16.70;11.27;;;12.30;99.90;;;;;;5072200;28;20335;-80
2021/04/03 05:47:34;;;;;;;19.90;11.83;;;12.30;99.90;;;;;;5072829;28;20224;-81
2021/04/03 05:50:02;;;;;;;18.47;11.73;;;12.30;99.90;;;;;;5072003;28;20255;-77
2021/04/03 05:52:28;;;;;;;19.80;11.67;;;12.30;99.90;;;;;;5072885;28;20206;-76
2021/04/03 05:54:55;;;;;;;22.27;11.82;;;12.30;99.90;;;;;;5072163;28;20199;-76
2021/04/03 05:57:24;;;;;;;20.93;11.10;;;12.30;99.90;;;;;;5072570;28;20210;-77
2021/04/03 05:59:51;;;;;;;26.73;12.80;;;12.30;99.90;;;;;;5072080;28;20234;-75
2021/04/03 06:02:18;;;;;;;17.53;11.13;;;12.20;99.90;;;;;;5072347;28;20643;-76
2021/04/03 06:04:45;;;;;;;20.23;11.90;;;12.20;99.90;;;;;;5071653;28;20210;-75
2021/04/03 06:07:11;;;;;;;16.87;10.70;;;12.20;99.90;;;;;;5072553;28;20202;-75
2021/04/03 06:09:38;;;;;;;16.73;11.00;;;12.10;99.90;;;;;;5072423;28;20206;-75
2021/04/03 06:12:06;;;;;;;22.37;11.33;;;12.10;99.90;;;;;;5071716;28;20259;-76
2021/04/03 06:14:35;;;;;;;20.40;11.50;;;12.20;99.90;;;;;;5072450;28;20245;-75
2021/04/03 06:17:03;;;;;;;19.53;11.63;;;12.20;99.90;;;;;;5071005;28;20248;-75
2021/04/03 06:19:31;;;;;;;19.03;10.97;;;12.30;99.90;;;;;;5071951;28;20230;-75
2021/04/03 06:22:00;;;;;;;17.27;10.67;;;12.30;99.90;;;;;;5071495;28;20206;-76
2021/04/03 06:24:29;;;;;;;19.47;11.00;;;12.30;99.90;;;;;;5071765;28;20245;-75
2021/04/03 06:27:04;;;;;;;17.23;10.70;;;12.30;99.90;;;;;;5071768;28;20229;-76
2021/04/03 06:29:36;;;;;;;13.67;10.43;;;12.30;99.90;;;;;;5071772;28;20560;-75
2021/04/03 06:32:03;;;;;;;16.92;10.13;;;12.30;99.90;;;;;;5071611;28;20579;-75
2021/04/03 06:34:33;;;;;;;14.37;10.50;;;12.30;99.90;;;;;;5071196;28;20206;-75
2021/04/03 06:37:00;;;;;;;20.20;10.23;;;12.30;99.90;;;;;;5071690;28;20203;-75
2021/04/03 06:39:28;;;;;;;18.13;9.43;;;12.30;99.90;;;;;;5071184;28;20233;-75
2021/04/03 06:41:54;;;;;;;22.17;12.23;;;12.30;99.90;;;;;;5071519;28;20293;-74
2021/04/03 06:44:22;;;;;;;18.83;10.87;;;12.40;99.90;;;;;;5071535;28;20210;-74
2021/04/03 06:46:49;;;;;;;16.60;10.57;;;12.40;99.90;;;;;;5071022;28;20224;-76
2021/04/03 06:49:16;;;;;;;13.23;9.30;;;12.50;99.90;;;;;;5071213;28;20213;-75
2021/04/03 06:51:44;;;;;;;16.83;9.27;;;12.50;99.90;;;;;;5066538;28;20276;-87
2021/04/03 06:54:12;;;;;;;16.20;8.97;;;12.50;99.90;;;;;;5064264;28;20577;-82
2021/04/03 06:56:39;;;;;;;15.77;9.87;;;12.60;99.90;;;;;;5072014;28;20275;-84
2021/04/03 06:59:08;;;;;;;13.35;10.02;;;12.60;99.90;;;;;;5071576;28;20233;-83
2021/04/03 07:01:45;;;;;;;14.33;8.77;;;12.70;99.90;;;;;;5071056;28;20232;-76
2021/04/03 07:04:29;;;;;;;13.80;9.43;;;12.70;99.90;;;;;;5070950;28;20205;-74
2021/04/03 07:06:58;;;;;;;14.70;9.57;;;12.80;99.90;;;;;;5070474;28;20673;-76
2021/04/03 07:09:25;;;;;;;11.17;8.57;;;13.00;99.90;;;;;;5071243;28;20206;-74
2021/04/03 07:11:53;;;;;;;14.70;8.67;;;13.10;99.90;;;;;;5070478;28;20681;-78
2021/04/03 07:14:21;;;;;;;17.10;9.03;;;13.00;99.90;;;;;;5070986;28;20209;-72
2021/04/03 07:16:49;;;;;;;13.17;8.27;;;13.00;99.90;;;;;;5067935;28;20205;-74
2021/04/03 07:19:17;;;;;;;14.10;8.63;;;12.90;99.90;;;;;;5069252;28;20225;-72
2021/04/03 07:21:44;;;;;;;19.57;8.80;;;13.00;99.90;;;;;;5070941;28;20264;-72
2021/04/03 07:24:13;;;;;;;13.13;9.07;;;13.00;99.90;;;;;;5070538;28;20240;-71
2021/04/03 07:26:44;;;;;;;12.27;8.80;;;13.10;99.90;;;;;;5070998;28;20743;-71
2021/04/03 07:29:49;;;;;;;10.47;7.80;;;13.30;99.90;;;;;;5064137;28;20226;-72
2021/04/03 07:32:32;;;;;;;19.00;9.80;;;13.30;99.90;;;;;;5070741;28;20206;-70
2021/04/03 07:35:00;;;;;;;11.00;6.87;;;13.20;99.90;;;;;;5070423;28;20731;-72
2021/04/03 07:37:34;;;;;;;20.70;8.45;;;13.30;99.90;;;;;;5069728;28;20594;-73
2021/04/03 07:40:03;;;;;;;11.55;7.88;;;13.30;99.90;;;;;;5070047;28;20358;-77
2021/04/03 07:42:34;;;;;;;9.67;7.33;;;13.40;99.90;;;;;;5070608;28;20217;-72
2021/04/03 07:45:01;;;;;;;11.70;7.55;;;13.40;99.90;;;;;;5069040;28;20206;-71
2021/04/03 07:47:28;;;;;;;16.00;8.60;;;13.50;99.90;;;;;;5070499;28;20217;-71
2021/04/03 07:49:55;;;;;;;13.47;8.67;;;13.50;99.90;;;;;;5067906;28;20255;-71
2021/04/03 07:52:52;;;;;;;12.85;7.13;;;13.50;99.90;;;;;;5069652;28;20210;-71
2021/04/03 07:55:33;;;;;;;12.95;7.43;;;13.60;99.90;;;;;;5064300;28;20206;-71
2021/04/03 07:58:25;;;;;;;11.25;6.75;;;13.60;99.90;;;;;;5069875;28;20588;-72
2021/04/03 08:00:52;;;;;;;10.23;5.95;;;13.70;99.90;;;;;;5068227;28;20241;-72
2021/04/03 08:03:22;;;;;;;10.88;6.60;;;13.70;99.90;;;;;;5070226;28;20206;-73
2021/04/03 08:05:50;;;;;;;9.23;6.23;;;13.80;99.90;;;;;;5069367;28;20206;-72
2021/04/03 08:08:19;;;;;;;7.63;5.78;;;13.80;99.90;;;;;;5068298;28;20202;-77
2021/04/03 08:10:47;;;;;;;12.77;6.10;;;13.90;99.90;;;;;;5068006;28;20210;-80
2021/04/03 08:13:18;;;;;;;9.23;5.90;;;14.00;99.90;;;;;;5068979;28;20224;-83
2021/04/03 08:15:48;;;;;;;10.18;6.30;;;14.20;99.90;;;;;;5069130;28;20289;-70
2021/04/03 08:18:15;;;;;;;12.45;5.68;;;14.30;99.90;;;;;;5069974;28;20293;-70
2021/04/03 08:20:51;;;;;;;15.07;6.78;;;14.50;99.90;;;;;;5069061;28;20234;-74
2021/04/03 08:23:30;;;;;;;7.40;5.90;;;14.40;99.90;;;;;;5062366;28;20219;-73
2021/04/03 08:25:58;;;;;;;8.05;6.03;;;14.30;99.90;;;;;;5076615;28;20666;-76
2021/04/03 08:28:24;;;;;;;10.98;6.53;;;14.40;99.90;;;;;;5060632;28;20209;-69
2021/04/03 08:30:51;;;;;;;9.35;5.82;;;14.50;99.90;;;;;;5068858;28;20222;-72
2021/04/03 08:33:18;;;;;;;9.75;7.20;;;14.70;99.90;;;;;;5069538;28;20206;-74
2021/04/03 08:35:47;;;;;;;12.15;6.22;;;14.70;99.90;;;;;;5069450;28;20202;-72
2021/04/03 08:38:19;;;;;;;9.25;5.68;;;14.60;99.90;;;;;;5069994;28;20202;-73
2021/04/03 08:40:46;;;;;;;9.40;6.43;;;14.90;99.90;;;;;;5070494;28;20656;-73
2021/04/03 08:43:18;;;;;;;7.68;5.43;;;15.00;99.90;;;;;;5069717;28;20701;-77
2021/04/03 08:45:45;;;;;;;10.75;6.50;;;14.80;99.90;;;;;;5069542;28;20206;-76
2021/04/03 08:48:12;;;;;;;9.65;5.65;;;15.10;99.90;;;;;;5073504;28;20210;-71
2021/04/03 08:50:39;;;;;;;12.02;5.88;;;15.50;99.90;;;;;;5073809;28;20598;-72
2021/04/03 08:53:06;;;;;;;10.75;5.63;;;16.40;99.90;;;;;;5073364;28;20586;-78
2021/04/03 08:55:33;;;;;;;12.23;5.85;;;17.80;99.90;;;;;;5073653;28;20217;-78
2021/04/03 08:58:02;;;;;;;14.40;7.28;;;19.40;99.90;;;;;;5072562;28;20252;-73
2021/04/03 09:00:30;;;;;;;10.70;6.20;;;19.60;99.90;;;;;;5073415;28;20653;-78
2021/04/03 09:02:57;;;;;;;9.75;5.95;;;18.80;99.90;;;;;;5073283;28;20207;-74
2021/04/03 09:05:24;;;;;;;12.40;5.13;;;17.90;99.90;;;;;;5065654;28;20214;-79
2021/04/03 09:07:51;;;;;;;6.90;5.43;;;16.80;99.90;;;;;;5072957;28;20265;-77
2021/04/03 09:10:19;;;;;;;6.13;4.72;;;16.80;99.90;;;;;;5073547;28;20209;-77
2021/04/03 09:12:46;;;;;;;7.72;4.95;;;16.40;99.90;;;;;;5064179;28;20211;-78
2021/04/03 09:15:14;;;;;;;6.45;4.38;;;16.10;99.90;;;;;;5071463;28;20293;-84
2021/04/03 09:17:49;;;;;;;8.98;5.32;;;16.00;99.90;;;;;;5072466;28;20202;-76
2021/04/03 09:20:20;;;;;;;8.73;4.70;;;16.80;99.90;;;;;;5073170;28;20236;-79
2021/04/03 09:22:48;;;;;;;9.10;5.35;;;18.40;99.90;;;;;;5072965;28;20198;-79
2021/04/03 09:25:16;;;;;;;12.20;5.25;;;17.60;99.90;;;;;;5073180;28;20213;-75
2021/04/03 09:27:55;;;;;;;11.50;5.22;;;17.10;99.90;;;;;;5072548;28;20206;-77
2021/04/03 09:30:30;;;;;;;8.63;4.90;;;17.60;99.90;;;;;;5070469;28;20213;-77
2021/04/03 09:32:57;;;;;;;8.18;4.60;;;18.10;99.90;;;;;;5071152;28;20259;-78
2021/04/03 09:35:25;;;;;;;9.35;4.65;;;18.50;99.90;;;;;;5072605;28;20210;-79
2021/04/03 09:37:58;;;;;;;8.65;4.72;;;22.10;99.90;;;;;;5066203;28;20281;-76
2021/04/03 09:40:34;;;;;;;9.18;5.05;;;22.80;99.90;;;;;;5068888;28;20273;-74
2021/04/03 09:43:00;;;;;;;8.75;6.25;;;24.00;99.90;;;;;;5069117;28;20198;-75
2021/04/03 09:45:27;;;;;;;7.80;5.95;;;24.30;99.90;;;;;;5071455;28;20206;-75
2021/04/03 09:47:55;;;;;;;8.80;5.72;;;23.80;99.90;;;;;;5071824;28;20214;-76
2021/04/03 09:50:23;;;;;;;9.93;5.47;;;24.10;99.90;;;;;;5071848;28;20275;-78
2021/04/03 09:52:51;;;;;;;11.48;6.43;;;24.60;99.90;;;;;;5069057;28;20209;-80
2021/04/03 09:55:17;;;;;;;10.27;4.95;;;24.20;99.90;;;;;;5072336;28;20674;-79
2021/04/03 09:57:43;;;;;;;8.45;5.38;;;24.80;99.90;;;;;;5069631;28;20202;-75
2021/04/03 10:00:11;;;;;;;6.35;5.60;;;24.40;99.90;;;;;;5071820;28;20237;-81
2021/04/03 10:02:38;;;;;;;16.20;6.30;;;25.00;99.90;;;;;;5072421;28;20666;-77
2021/04/03 10:05:05;;;;;;;9.18;5.10;;;24.50;99.90;;;;;;5072010;28;20558;-82
2021/04/03 10:07:33;;;;;;;7.38;5.95;;;25.40;99.90;;;;;;5071809;28;20260;-82
2021/04/03 10:09:59;;;;;;;8.98;5.10;;;24.00;99.90;;;;;;5072019;28;20210;-83
2021/04/03 10:12:26;;;;;;;10.32;5.55;;;23.80;99.90;;;;;;5072232;28;20217;-81
2021/04/03 10:14:52;;;;;;;8.32;5.40;;;24.00;99.90;;;;;;5071949;28;20206;-81
2021/04/03 10:17:19;;;;;;;8.65;5.15;;;24.30;99.90;;;;;;5072494;28;20339;-81
2021/04/03 10:19:45;;;;;;;9.40;5.32;;;24.90;99.90;;;;;;5070740;28;20646;-79
2021/04/03 10:22:12;;;;;;;7.07;4.75;;;24.90;99.90;;;;;;5071959;28;20229;-78
2021/04/03 10:24:39;;;;;;;6.15;4.43;;;25.10;99.90;;;;;;5072904;28;20582;-80
2021/04/03 10:27:07;;;;;;;12.10;5.68;;;24.20;99.90;;;;;;5072210;28;20297;-78
2021/04/03 10:29:33;;;;;;;8.90;5.97;;;24.80;99.90;;;;;;5071763;28;20696;-81
2021/04/03 10:32:00;;;;;;;9.80;5.32;;;24.00;99.90;;;;;;5063183;28;20582;-79
2021/04/03 10:34:26;;;;;;;8.60;4.82;;;23.60;99.90;;;;;;5068990;28;20202;-79
2021/04/03 10:36:53;;;;;;;10.93;4.55;;;20.50;99.90;;;;;;5071762;28;20210;-83
2021/04/03 10:39:19;;;;;;;8.00;4.50;;;18.80;99.90;;;;;;5071210;28;20280;-82
2021/04/03 10:41:47;;;;;;;8.20;5.15;;;18.10;99.90;;;;;;5071771;28;20206;-80
2021/04/03 10:44:13;;;;;;;8.35;5.55;;;17.70;99.90;;;;;;5071555;28;20214;-80
2021/04/03 10:46:40;;;;;;;8.90;4.82;;;17.50;99.90;;;;;;5071817;28;20222;-79
2021/04/03 10:49:06;;;;;;;7.13;4.63;;;17.70;99.90;;;;;;5071340;28;20214;-78
2021/04/03 10:51:32;;;;;;;8.30;4.93;;;17.70;99.90;;;;;;5071230;28;20217;-80
2021/04/03 10:53:59;;;;;;;14.65;5.35;;;17.90;99.90;;;;;;5070423;28;20205;-76
2021/04/03 10:56:26;;;;;;;8.55;6.05;;;18.00;99.90;;;;;;5070201;28;20209;-77
2021/04/03 10:58:53;;;;;;;8.07;5.47;;;18.00;99.90;;;;;;5070736;28;20251;-80
2021/04/03 11:01:20;;;;;;;9.10;5.82;;;17.90;99.90;;;;;;5071455;28;20640;-79
2021/04/03 11:03:46;;;;;;;7.68;4.45;;;18.00;99.90;;;;;;5070732;28;20583;-80
2021/04/03 11:06:12;;;;;;;6.68;4.82;;;17.80;99.90;;;;;;5071202;28;20714;-77
2021/04/03 11:08:39;;;;;;;9.48;5.10;;;17.40;99.90;;;;;;5071018;28;20224;-78
2021/04/03 11:11:06;;;;;;;8.85;5.35;;;17.60;99.90;;;;;;5070763;28;20221;-78
2021/04/03 11:13:32;;;;;;;9.45;4.85;;;17.90;99.90;;;;;;5070783;28;20752;-79
2021/04/03 11:16:00;;;;;;;8.65;5.18;;;17.70;99.90;;;;;;5070625;28;20618;-83
2021/04/03 11:18:26;;;;;;;9.80;6.05;;;17.50;99.90;;;;;;5070794;28;20214;-78
2021/04/03 11:20:53;;;;;;;15.95;6.30;;;17.70;99.90;;;;;;5070625;28;20233;-78
2021/04/03 11:23:19;;;;;;;13.63;5.53;;;18.00;99.90;;;;;;5070934;28;20202;-79
2021/04/03 11:25:46;;;;;;;11.52;5.00;;;18.00;99.90;;;;;;5070328;28;20715;-79
2021/04/03 11:28:13;;;;;;;9.15;5.60;;;17.80;99.90;;;;;;5070770;28;20227;-80
2021/04/03 11:30:39;;;;;;;9.68;4.97;;;17.90;99.90;;;;;;5070300;28;20708;-78
2021/04/03 11:33:08;;;;;;;9.32;5.13;;;18.00;99.90;;;;;;5070660;28;20213;-80
2021/04/03 11:35:36;;;;;;;11.85;5.30;;;17.80;99.90;;;;;;5071235;28;20228;-83
2021/04/03 11:38:03;;;;;;;8.45;4.78;;;17.80;99.90;;;;;;5070129;28;20199;-80
2021/04/03 11:40:30;;;;;;;8.77;5.38;;;18.00;99.90;;;;;;5070650;28;20720;-82
2021/04/03 11:42:56;;;;;;;6.82;4.57;;;18.00;99.90;;;;;;5070175;28;20233;-80
2021/04/03 11:45:24;;;;;;;9.63;5.38;;;18.10;99.90;;;;;;5070954;28;20210;-75
2021/04/03 11:47:51;;;;;;;9.85;5.95;;;17.90;99.90;;;;;;5069091;28;20709;-79
2021/04/03 11:50:19;;;;;;;10.40;4.40;;;18.20;99.90;;;;;;5059402;28;20206;-79
2021/04/03 11:52:46;;;;;;;7.25;4.90;;;18.40;99.90;;;;;;5066443;28;20217;-80
2021/04/03 11:55:15;;;;;;;8.07;4.22;;;18.00;99.90;;;;;;5063602;28;20347;-76
2021/04/03 11:57:42;;;;;;;8.40;4.60;;;17.90;99.90;;;;;;5068252;28;20202;-76
2021/04/03 12:00:10;;;;;;;8.35;4.72;;;18.20;99.90;;;;;;5064733;28;20230;-77
2021/04/03 12:02:37;;;;;;;7.05;4.50;;;18.30;99.90;;;;;;5069592;28;20287;-79
2021/04/03 12:05:04;;;;;;;7.43;4.60;;;18.60;99.90;;;;;;5069718;28;20330;-77
2021/04/03 12:07:36;;;;;;;10.38;4.47;;;18.60;99.90;;;;;;5068459;28;20214;-78
2021/04/03 12:10:04;;;;;;;8.23;4.00;;;18.50;99.90;;;;;;5070212;28;20202;-83
2021/04/03 12:12:30;;;;;;;14.07;4.85;;;18.60;99.90;;;;;;5070115;28;20737;-78
2021/04/03 12:14:57;;;;;;;9.23;5.22;;;18.80;99.90;;;;;;5067476;28;20634;-78
2021/04/03 12:17:24;;;;;;;9.25;4.57;;;18.60;99.90;;;;;;5067760;28;20217;-80
2021/04/03 12:19:50;;;;;;;6.70;4.05;;;18.80;99.90;;;;;;5068387;28;20248;-81
2021/04/03 12:22:18;;;;;;;6.65;3.92;;;18.90;99.90;;;;;;5063944;28;20232;-83
2021/04/03 12:24:46;;;;;;;7.63;4.22;;;18.90;99.90;;;;;;5067709;28;20216;-80
2021/04/03 12:27:12;;;;;;;11.10;4.18;;;18.90;99.90;;;;;;5071435;28;20214;-79
2021/04/03 12:29:38;;;;;;;5.90;4.32;;;18.80;99.90;;;;;;5070622;28;20623;-79
2021/04/03 12:32:06;;;;;;;8.00;4.50;;;18.80;99.90;;;;;;5069757;28;20202;-78
2021/04/03 12:34:33;;;;;;;9.00;3.97;;;19.10;99.90;;;;;;5069852;28;20209;-77
2021/04/03 12:36:59;;;;;;;8.05;4.00;;;19.50;99.90;;;;;;5069516;28;20213;-77
2021/04/03 12:39:27;;;;;;;6.30;3.67;;;19.20;99.90;;;;;;5069744;28;20256;-82
2021/04/03 12:41:54;;;;;;;5.68;4.07;;;19.20;99.90;;;;;;5068616;28;20225;-77